Time;durP1;ratioP1;P1;durP2;ratioP2;P2;SDS_P1;SDS_P2;PMS_P1;PMS_P2;Temp;Humidity;BMP_temperature;BMP_pressure;BME280_temperature;BME280_humidity;BME280_pressure;Samples;Min_cycle;Max_cycle;Signal;HPM_P1;HPM_P2
2021/01/17 00:01:56;;;;;;;79.50;33.45;;;;;;;-10.63;70.47;99983.77;1688594;85;21306;-80
2021/01/17 00:05:01;;;;;;;70.00;32.08;;;;;;;-10.66;70.10;99973.74;1689421;85;21738;-79
2021/01/17 00:08:07;;;;;;;68.17;28.95;;;;;;;-10.72;69.87;99976.14;1688852;85;21228;-80
2021/01/17 00:11:13;;;;;;;74.65;31.60;;;;;;;-10.85;69.55;99978.31;1688975;85;21269;-81
2021/01/17 00:14:19;;;;;;;73.37;28.62;;;;;;;-11.01;69.63;99969.61;1692320;83;21199;-81
2021/01/17 00:17:27;;;;;;;81.57;30.95;;;;;;;-11.13;69.67;99960.31;1696875;84;21849;-81
2021/01/17 00:20:33;;;;;;;64.92;29.32;;;;;;;-11.32;69.78;99966.63;1696946;84;21806;-80
2021/01/17 00:23:40;;;;;;;70.42;28.45;;;;;;;-11.49;70.03;99964.95;1697336;84;21347;-80
2021/01/17 00:26:46;;;;;;;58.40;25.97;;;;;;;-11.64;70.39;99965.83;1698313;84;21628;-80
2021/01/17 00:29:52;;;;;;;58.17;26.97;;;;;;;-11.70;70.63;99960.75;1696759;84;21193;-80
2021/01/17 00:32:59;;;;;;;59.50;25.25;;;;;;;-11.75;70.78;99967.94;1696999;84;21339;-80
2021/01/17 00:36:04;;;;;;;50.73;24.15;;;;;;;-11.88;70.88;99956.05;1698155;84;21189;-80
2021/01/17 00:39:14;;;;;;;58.08;26.55;;;;;;;-11.96;71.21;99958.03;1697059;84;21331;-80
2021/01/17 00:42:24;;;;;;;47.38;20.10;;;;;;;-11.93;71.28;99957.49;1698580;84;21779;-80
2021/01/17 00:45:32;;;;;;;44.85;18.25;;;;;;;-11.95;71.11;99951.84;1698657;84;21210;-80
2021/01/17 00:48:39;;;;;;;39.40;17.65;;;;;;;-12.03;70.86;99961.31;1698738;84;21214;-80
2021/01/17 00:51:52;;;;;;;49.83;18.05;;;;;;;-12.10;70.65;99949.19;1698496;84;21347;-80
2021/01/17 00:54:57;;;;;;;42.78;19.25;;;;;;;-12.14;70.59;99943.16;1698816;84;21810;-80
2021/01/17 00:58:03;;;;;;;44.60;20.50;;;;;;;-12.22;70.34;99947.78;1698039;84;21345;-79
2021/01/17 01:01:09;;;;;;;46.18;20.08;;;;;;;-12.27;70.19;99952.77;1698480;84;21316;-80
2021/01/17 01:04:19;;;;;;;43.08;17.80;;;;;;;-12.36;70.12;99955.20;1697577;84;21217;-80
2021/01/17 01:07:25;;;;;;;41.37;18.00;;;;;;;-12.43;69.91;99954.48;1698744;84;21316;-80
2021/01/17 01:10:32;;;;;;;34.27;17.77;;;;;;;-12.55;69.80;99942.98;1698734;84;21344;-80
2021/01/17 01:13:37;;;;;;;37.20;16.25;;;;;;;-12.64;69.83;99942.77;1698142;84;21327;-80
2021/01/17 01:16:44;;;;;;;38.02;16.95;;;;;;;-12.73;69.74;99936.42;1697636;83;21286;-80
2021/01/17 01:19:50;;;;;;;47.15;21.12;;;;;;;-12.79;69.86;99937.91;1698380;84;21182;-80
2021/01/17 01:22:56;;;;;;;35.23;16.12;;;;;;;-12.77;69.91;99929.95;1696964;84;21349;-81
2021/01/17 01:26:05;;;;;;;42.13;19.27;;;;;;;-12.79;69.74;99928.69;1697039;84;22238;-80
2021/01/17 01:29:08;;;;;;;49.48;19.55;;;;;;;-12.88;69.74;99922.34;1683439;84;21190;-80
2021/01/17 01:32:15;;;;;;;38.58;17.95;;;;;;;-12.90;69.79;99919.72;1697981;84;21371;-80
2021/01/17 01:35:21;;;;;;;49.05;19.75;;;;;;;-12.88;69.67;99928.92;1698495;84;21329;-80
2021/01/17 01:38:27;;;;;;;46.35;21.70;;;;;;;-12.90;69.51;99921.49;1697768;84;21351;-80
2021/01/17 01:41:36;;;;;;;37.93;16.93;;;;;;;-12.98;69.55;99912.95;1698504;84;21296;-81
2021/01/17 01:44:41;;;;;;;37.88;18.90;;;;;;;-13.05;69.57;99902.14;1697560;84;21316;-80
2021/01/17 01:47:47;;;;;;;48.65;18.32;;;;;;;-13.16;69.78;99896.70;1698307;84;21328;-80
2021/01/17 01:50:52;;;;;;;45.48;19.67;;;;;;;-13.22;70.03;99897.32;1698667;84;21631;-80
2021/01/17 01:54:01;;;;;;;36.93;16.12;;;;;;;-13.25;70.22;99898.73;1697496;84;21827;-80
2021/01/17 01:57:07;;;;;;;41.42;19.42;;;;;;;-13.30;70.39;99892.72;1698575;84;21315;-80
2021/01/17 02:00:15;;;;;;;43.52;19.42;;;;;;;-13.35;70.55;99903.36;1697606;84;21190;-80
2021/01/17 02:03:21;;;;;;;40.20;14.33;;;;;;;-13.38;70.65;99890.72;1697910;84;21838;-81
2021/01/17 02:06:30;;;;;;;44.27;16.23;;;;;;;-13.42;70.77;99899.99;1697328;84;21296;-80
2021/01/17 02:09:36;;;;;;;41.23;17.10;;;;;;;-13.54;71.01;99903.39;1698592;84;21316;-80
2021/01/17 02:12:48;;;;;;;39.48;15.58;;;;;;;-13.62;71.27;99904.01;1697291;84;21209;-80
2021/01/17 02:15:54;;;;;;;45.40;17.73;;;;;;;-13.66;71.48;99904.52;1697368;83;21842;-80
2021/01/17 02:19:00;;;;;;;40.35;16.57;;;;;;;-13.70;71.53;99901.09;1697661;84;21347;-79
2021/01/17 02:22:07;;;;;;;33.73;16.50;;;;;;;-13.76;71.33;99906.50;1698794;84;21747;-80
2021/01/17 02:25:14;;;;;;;32.25;14.15;;;;;;;-13.81;71.17;99914.94;1698590;84;21818;-81
2021/01/17 02:28:23;;;;;;;27.32;12.58;;;;;;;-13.87;70.88;99924.29;1698259;84;21366;-80
2021/01/17 02:31:29;;;;;;;28.40;12.23;;;;;;;-13.99;70.90;99925.41;1698104;84;21253;-81
2021/01/17 02:34:35;;;;;;;36.23;16.10;;;;;;;-14.01;70.92;99923.27;1697699;84;21317;-81
2021/01/17 02:38:02;;;;;;;36.95;14.33;;;;;;;-14.04;70.52;99919.38;1699005;84;21213;-81
2021/01/17 02:41:41;;;;;;;32.33;13.95;;;;;;;-14.13;70.22;99918.71;1699080;84;21870;-81
2021/01/17 02:44:46;;;;;;;41.05;14.45;;;;;;;-14.22;70.07;99925.02;1655890;86;21766;-81
2021/01/17 02:47:51;;;;;;;25.65;11.78;;;;;;;-14.31;69.65;99929.14;1697633;84;21388;-81
2021/01/17 02:50:57;;;;;;;35.13;14.03;;;;;;;-14.31;69.63;99925.20;1699109;84;21249;-81
2021/01/17 02:54:21;;;;;;;33.45;14.00;;;;;;;-14.35;69.26;99922.22;1697953;84;21308;-81
2021/01/17 02:57:26;;;;;;;37.58;13.88;;;;;;;-14.42;69.02;99924.11;1698932;84;21740;-81
2021/01/17 03:00:33;;;;;;;43.45;14.63;;;;;;;-14.50;68.99;99922.11;1698950;84;21908;-80
2021/01/17 03:03:46;;;;;;;31.95;12.78;;;;;;;-14.57;69.02;99925.31;1698870;84;21355;-80
2021/01/17 03:06:53;;;;;;;32.25;13.32;;;;;;;-14.60;69.19;99937.63;1698899;84;21715;-80
2021/01/17 03:09:59;;;;;;;34.85;13.83;;;;;;;-14.60;69.25;99946.83;1698447;84;21166;-80
2021/01/17 03:13:06;;;;;;;32.88;14.25;;;;;;;-14.56;69.22;99942.80;1697828;84;21758;-80
2021/01/17 03:16:14;;;;;;;37.93;14.53;;;;;;;-14.56;68.91;99934.05;1698057;84;21285;-80
2021/01/17 03:19:20;;;;;;;30.40;13.43;;;;;;;-14.57;69.01;99931.88;1696839;83;21324;-80
2021/01/17 03:22:25;;;;;;;34.15;11.90;;;;;;;-14.54;68.80;99925.69;1698294;84;21360;-80
2021/01/17 03:25:30;;;;;;;23.40;10.98;;;;;;;-14.57;68.77;99929.25;1698483;84;21810;-80
2021/01/17 03:28:36;;;;;;;26.17;12.68;;;;;;;-14.68;68.54;99914.12;1697682;84;21327;-80
2021/01/17 03:31:42;;;;;;;30.00;13.10;;;;;;;-14.78;68.76;99910.81;1698061;84;21241;-80
2021/01/17 03:34:51;;;;;;;31.60;12.78;;;;;;;-14.85;68.77;99912.28;1697522;84;21320;-80
2021/01/17 03:37:57;;;;;;;30.32;14.75;;;;;;;-14.89;68.85;99921.97;1698122;84;21309;-80
2021/01/17 03:41:03;;;;;;;35.90;15.48;;;;;;;-14.90;68.83;99938.61;1697278;84;21286;-80
2021/01/17 03:44:10;;;;;;;31.93;15.25;;;;;;;-14.88;68.79;99935.50;1697608;84;21394;-81
2021/01/17 03:47:15;;;;;;;30.97;13.22;;;;;;;-14.87;68.73;99931.98;1698081;84;21307;-80
2021/01/17 03:50:20;;;;;;;38.90;14.68;;;;;;;-14.81;68.73;99921.39;1698662;84;21292;-80
2021/01/17 03:53:26;;;;;;;32.65;13.22;;;;;;;-14.80;68.48;99927.05;1698085;84;21355;-79
2021/01/17 03:56:33;;;;;;;38.73;15.05;;;;;;;-14.80;68.38;99940.18;1698743;84;21237;-80
2021/01/17 03:59:38;;;;;;;36.40;14.15;;;;;;;-14.87;68.34;99938.54;1698841;84;21813;-80
2021/01/17 04:02:45;;;;;;;33.28;13.65;;;;;;;-14.91;68.54;99935.58;1698165;84;21182;-80
2021/01/17 04:05:51;;;;;;;36.28;14.15;;;;;;;-14.86;68.66;99934.19;1697753;84;21225;-80
2021/01/17 04:08:58;;;;;;;32.03;14.30;;;;;;;-14.82;68.50;99938.45;1697651;84;21371;-80
2021/01/17 04:12:04;;;;;;;40.30;12.90;;;;;;;-14.87;68.33;99942.48;1697588;84;21842;-80
2021/01/17 04:15:11;;;;;;;34.08;14.53;;;;;;;-14.92;68.40;99932.51;1698160;84;21253;-80
2021/01/17 04:18:18;;;;;;;35.95;13.93;;;;;;;-15.00;68.47;99933.97;1698229;83;21288;-81
2021/01/17 04:21:24;;;;;;;35.08;14.83;;;;;;;-15.07;68.69;99945.45;1705646;84;21304;-81
2021/01/17 04:24:30;;;;;;;43.28;15.45;;;;;;;-15.10;68.82;99942.01;1706467;84;21352;-80
2021/01/17 04:27:36;;;;;;;33.88;12.93;;;;;;;-15.08;69.11;99946.80;1706682;84;21319;-79
2021/01/17 04:30:43;;;;;;;43.55;16.20;;;;;;;-15.07;69.14;99940.20;1686038;84;21316;-80
2021/01/17 04:33:48;;;;;;;40.38;14.87;;;;;;;-15.06;69.17;99935.82;1705838;84;21296;-80
2021/01/17 04:36:54;;;;;;;37.40;14.33;;;;;;;-15.05;69.21;99941.06;1706996;84;21177;-80
2021/01/17 04:40:00;;;;;;;29.18;12.05;;;;;;;-15.01;69.13;99953.66;1707104;84;21837;-80
2021/01/17 04:43:18;;;;;;;43.08;15.80;;;;;;;-15.00;68.92;99954.97;1706501;84;21864;-80
2021/01/17 04:46:24;;;;;;;33.70;12.10;;;;;;;-15.01;68.84;99944.48;1705902;84;21304;-80
2021/01/17 04:49:30;;;;;;;33.45;12.50;;;;;;;-14.95;68.63;99935.20;1707198;84;21252;-80
2021/01/17 04:52:37;;;;;;;43.15;15.45;;;;;;;-15.00;68.60;99930.48;1706933;84;21323;-80
2021/01/17 04:55:43;;;;;;;37.75;14.47;;;;;;;-14.97;68.57;99922.54;1706469;84;21884;-80
2021/01/17 04:58:52;;;;;;;32.55;11.88;;;;;;;-14.94;68.24;99924.26;1705833;84;21858;-80
2021/01/17 05:02:25;;;;;;;29.55;10.95;;;;;;;-14.96;68.10;99916.39;1706402;84;21809;-80
2021/01/17 05:05:32;;;;;;;38.50;12.33;;;;;;;-14.96;68.04;99921.64;1705836;84;21276;-80
2021/01/17 05:08:39;;;;;;;34.08;11.70;;;;;;;-15.04;67.88;99919.63;1705478;84;21745;-80
2021/01/17 05:11:49;;;;;;;32.53;11.15;;;;;;;-15.04;67.92;99919.17;1706242;84;21766;-81
2021/01/17 05:15:02;;;;;;;32.63;12.10;;;;;;;-15.03;67.85;99921.34;1706202;84;21323;-79
2021/01/17 05:18:09;;;;;;;18.77;7.53;;;;;;;-14.98;67.77;99916.43;1706335;84;21289;-80
2021/01/17 05:21:16;;;;;;;49.05;11.88;;;;;;;-14.93;67.73;99915.03;1704411;83;21315;-80
2021/01/17 05:24:24;;;;;;;30.65;11.85;;;;;;;-14.83;67.69;99923.16;1704894;84;21348;-80
2021/01/17 05:27:29;;;;;;;23.00;9.50;;;;;;;-14.72;67.54;99917.73;1706280;84;21327;-80
2021/01/17 05:30:35;;;;;;;26.62;9.78;;;;;;;-14.66;67.22;99917.61;1706330;84;21296;-79
2021/01/17 05:33:41;;;;;;;15.35;6.97;;;;;;;-14.59;66.97;99916.58;1705533;84;21185;-80
2021/01/17 05:36:46;;;;;;;16.25;8.18;;;;;;;-14.48;66.45;99921.65;1705281;84;21229;-80
2021/01/17 05:40:11;;;;;;;27.55;10.13;;;;;;;-14.44;66.12;99914.09;1706267;84;21290;-80
2021/01/17 05:43:18;;;;;;;28.80;10.50;;;;;;;-14.50;65.98;99926.05;1705550;84;21350;-80
2021/01/17 05:46:24;;;;;;;20.32;8.95;;;;;;;-14.58;66.03;99932.78;1705658;84;21390;-80
2021/01/17 05:49:32;;;;;;;25.27;11.15;;;;;;;-14.59;66.26;99947.23;1705950;84;21265;-80
2021/01/17 05:52:37;;;;;;;33.48;11.20;;;;;;;-14.69;66.54;99934.72;1684968;84;21319;-80
2021/01/17 05:55:45;;;;;;;30.65;12.33;;;;;;;-14.73;66.85;99948.34;1706187;84;21323;-80
2021/01/17 05:58:51;;;;;;;27.35;12.28;;;;;;;-14.71;66.94;99952.28;1705699;84;21328;-80
2021/01/17 06:01:58;;;;;;;44.23;17.37;;;;;;;-14.70;67.06;99958.80;1705140;84;21248;-80
2021/01/17 06:05:07;;;;;;;26.40;12.18;;;;;;;-14.72;67.03;99951.42;1705406;84;21354;-80
2021/01/17 06:08:14;;;;;;;32.13;13.10;;;;;;;-14.79;66.97;99954.17;1705898;84;21815;-80
2021/01/17 06:11:22;;;;;;;31.60;13.05;;;;;;;-14.89;67.26;99958.72;1706415;84;21157;-80
2021/01/17 06:14:31;;;;;;;20.90;10.75;;;;;;;-14.95;67.49;99957.52;1706548;84;21343;-79
2021/01/17 06:17:39;;;;;;;21.90;10.55;;;;;;;-14.98;67.67;99959.73;1705354;84;21833;-80
2021/01/17 06:20:45;;;;;;;41.02;16.20;;;;;;;-14.99;67.79;99967.64;1704551;83;21362;-80
2021/01/17 06:23:51;;;;;;;42.05;13.45;;;;;;;-14.99;67.84;99958.45;1697880;84;21364;-81
2021/01/17 06:26:58;;;;;;;26.65;11.57;;;;;;;-15.01;67.81;99956.29;1698112;84;21343;-81
2021/01/17 06:30:04;;;;;;;46.73;16.02;;;;;;;-15.00;67.78;99960.67;1665402;84;21221;-80
2021/01/17 06:33:11;;;;;;;46.20;16.17;;;;;;;-14.98;67.67;99954.94;1698270;84;21323;-80
2021/01/17 06:36:22;;;;;;;28.70;14.15;;;;;;;-14.96;67.81;99961.02;1698058;84;21320;-80
2021/01/17 06:39:34;;;;;;;35.98;15.13;;;;;;;-14.90;67.65;99956.99;1698986;84;21158;-80
2021/01/17 06:42:40;;;;;;;32.55;13.65;;;;;;;-14.83;67.68;99962.54;1697535;84;21225;-80
2021/01/17 06:45:52;;;;;;;33.53;14.50;;;;;;;-14.73;67.62;99962.79;1697155;84;21380;-79
2021/01/17 06:48:57;;;;;;;44.18;16.52;;;;;;;-14.66;67.28;99964.02;1698816;84;21218;-79
2021/01/17 06:52:03;;;;;;;33.45;14.00;;;;;;;-14.66;67.10;99966.19;1698245;84;21276;-80
2021/01/17 06:55:09;;;;;;;33.38;13.03;;;;;;;-14.68;67.05;99969.72;1698373;84;21830;-80
2021/01/17 06:58:21;;;;;;;30.05;11.85;;;;;;;-14.67;67.00;99966.23;1697075;84;21905;-80
2021/01/17 07:01:35;;;;;;;28.55;13.18;;;;;;;-14.71;67.00;99964.95;1697125;84;21331;-80
2021/01/17 07:04:46;;;;;;;28.40;12.43;;;;;;;-14.61;67.19;99965.66;1698246;84;21225;-81
2021/01/17 07:08:25;;;;;;;36.73;14.58;;;;;;;-14.49;66.99;99963.23;1697343;84;21332;-79
2021/01/17 07:11:36;;;;;;;;;;;;;;;-14.41;66.67;99960.44;1700823;84;21925;-80
2021/01/17 07:14:41;;;;;;;34.25;14.40;;;;;;;-14.28;66.81;99957.55;1698386;84;20180;-80
2021/01/17 07:17:51;;;;;;;19.77;8.85;;;;;;;-14.13;66.47;99948.94;1697484;84;21229;-80
2021/01/17 07:20:56;;;;;;;17.30;8.23;;;;;;;-14.05;65.91;99950.97;1697638;84;21834;-80
2021/01/17 07:24:02;;;;;;;28.45;11.38;;;;;;;-14.11;65.65;99939.24;1697273;84;21319;-80
2021/01/17 07:27:31;;;;;;;28.62;13.03;;;;;;;-14.14;65.70;99944.59;1698190;84;21304;-79
2021/01/17 07:31:11;;;;;;;26.97;11.53;;;;;;;-14.19;65.92;99951.25;1674140;85;21917;-79
2021/01/17 07:34:21;;;;;;;25.43;12.50;;;;;;;-14.10;66.18;99945.81;1696987;84;22043;-79
2021/01/17 07:37:28;;;;;;;25.43;11.80;;;;;;;-13.96;65.97;99941.58;1683032;84;21340;-81
2021/01/17 07:40:51;;;;;;;34.03;11.40;;;;;;;-13.92;65.63;99940.16;1698432;84;21732;-80
2021/01/17 07:43:56;;;;;;;26.33;10.85;;;;;;;-14.03;65.81;99939.95;1698185;84;21213;-81
2021/01/17 07:47:01;;;;;;;22.98;11.75;;;;;;;-13.98;66.35;99941.59;1698345;84;21817;-80
2021/01/17 07:50:07;;;;;;;29.10;12.40;;;;;;;-13.84;65.94;99940.44;1698430;84;21292;-80
2021/01/17 07:53:31;;;;;;;27.82;11.95;;;;;;;-13.90;65.80;99930.05;1697852;84;21331;-81
2021/01/17 07:56:41;;;;;;;26.02;12.20;;;;;;;-13.87;66.20;99941.84;1690769;84;21600;-80
2021/01/17 07:59:46;;;;;;;34.35;14.23;;;;;;;-13.77;65.69;99936.33;1698531;84;21332;-80
2021/01/17 08:02:56;;;;;;;28.25;11.78;;;;;;;-13.63;65.14;99932.53;1698365;84;21280;-80
2021/01/17 08:06:06;;;;;;;23.98;10.95;;;;;;;-13.52;64.94;99941.03;1698328;84;21316;-80
2021/01/17 08:09:19;;;;;;;26.40;12.90;;;;;;;-13.44;64.81;99937.33;1697415;84;21547;-80
2021/01/17 08:12:44;;;;;;;24.92;12.13;;;;;;;-13.31;64.42;99947.13;1698559;84;21356;-80
2021/01/17 08:15:50;;;;;;;24.47;12.37;;;;;;;-13.10;64.17;99943.52;1698242;84;21288;-80
2021/01/17 08:18:56;;;;;;;27.37;9.73;;;;;;;-12.95;63.56;99948.40;1697322;84;21241;-80
2021/01/17 08:22:03;;;;;;;31.48;14.75;;;;;;;-12.94;62.63;99950.13;1697489;84;21319;-80
2021/01/17 08:25:14;;;;;;;30.45;13.08;;;;;;;-12.97;62.62;99952.39;1698421;84;21314;-80
2021/01/17 08:28:41;;;;;;;25.17;10.93;;;;;;;-12.94;62.16;99954.07;1698361;84;21233;-80
2021/01/17 08:31:47;;;;;;;28.98;11.50;;;;;;;-12.85;62.16;99955.16;1698420;84;21178;-80
2021/01/17 08:34:54;;;;;;;17.05;8.05;;;;;;;-12.82;61.77;99955.09;1698413;84;21336;-80
2021/01/17 08:38:07;;;;;;;22.15;8.95;;;;;;;-12.77;61.47;99958.47;1698383;84;21317;-80
2021/01/17 08:41:12;;;;;;;21.10;10.50;;;;;;;-12.83;60.95;99965.22;1741794;82;21185;-80
2021/01/17 08:44:17;;;;;;;25.02;10.75;;;;;;;-12.83;60.88;99957.31;1741664;82;21304;-80
2021/01/17 08:47:29;;;;;;;24.52;11.08;;;;;;;-12.71;60.64;99958.30;1741890;82;21331;-80
2021/01/17 08:50:46;;;;;;;41.50;11.85;;;;;;;-12.74;60.05;99951.81;1741844;82;21798;-80
2021/01/17 08:53:52;;;;;;;33.53;11.65;;;;;;;-12.80;60.25;99948.00;1740478;82;21323;-80
2021/01/17 08:56:59;;;;;;;39.80;16.20;;;;;;;-12.72;60.67;99947.36;1741421;82;21283;-80
2021/01/17 09:00:04;;;;;;;41.25;18.27;;;;;;;-12.56;60.77;99937.72;1740204;82;21742;-80
2021/01/17 09:03:41;;;;;;;34.38;13.35;;;;;;;-12.49;60.15;99947.21;1740209;82;21331;-80
2021/01/17 09:06:49;;;;;;;27.77;11.08;;;;;;;-12.57;59.90;99950.50;1741478;82;21233;-79
2021/01/17 09:10:00;;;;;;;32.42;12.15;;;;;;;-12.71;60.06;99948.22;1740485;82;21149;-79
2021/01/17 09:13:07;;;;;;;30.57;14.65;;;;;;;-12.72;60.01;99953.08;1741509;82;21881;-79
2021/01/17 09:16:14;;;;;;;41.35;17.35;;;;;;;-12.67;60.16;99938.02;1740296;82;21284;-79
2021/01/17 09:19:20;;;;;;;34.85;13.40;;;;;;;-12.58;60.05;99935.59;1740289;82;21238;-80
2021/01/17 09:22:26;;;;;;;36.50;14.55;;;;;;;-12.48;59.48;99931.34;1741266;82;21279;-81
2021/01/17 09:25:32;;;;;;;35.63;13.75;;;;;;;-12.50;59.11;99933.63;1740608;81;21181;-80
2021/01/17 09:28:38;;;;;;;32.45;13.98;;;;;;;-12.62;58.70;99908.00;1740991;82;21197;-80
2021/01/17 09:31:44;;;;;;;37.93;14.98;;;;;;;-12.70;58.88;99911.32;1742016;82;21268;-79
2021/01/17 09:34:54;;;;;;;32.90;15.25;;;;;;;-12.64;58.99;99899.75;1741759;82;21267;-80
2021/01/17 09:38:03;;;;;;;22.73;10.45;;;;;;;-12.48;59.54;99905.45;1741402;82;21240;-79
2021/01/17 09:41:09;;;;;;;42.40;17.50;;;;;;;-12.33;59.07;99894.47;1741817;82;21284;-80
2021/01/17 09:44:15;;;;;;;37.45;18.98;;;;;;;-12.33;59.30;99887.88;1740588;82;21308;-80
2021/01/17 09:47:27;;;;;;;33.30;14.65;;;;;;;-12.17;59.21;99891.83;1741898;82;21283;-80
2021/01/17 09:50:32;;;;;;;49.77;22.75;;;;;;;-12.04;58.72;99888.81;1741996;82;21280;-80
2021/01/17 09:53:37;;;;;;;25.00;12.47;;;;;;;-12.00;58.46;99890.45;1733692;82;21289;-80
2021/01/17 09:56:48;;;;;;;31.27;15.45;;;;;;;-11.97;58.28;99881.14;1741916;82;21134;-79
2021/01/17 09:59:56;;;;;;;44.70;20.80;;;;;;;-11.99;58.06;99876.38;1740689;82;21260;-79
2021/01/17 10:03:03;;;;;;;30.88;14.53;;;;;;;-11.92;57.62;99872.63;1740781;82;21727;-79
2021/01/17 10:06:07;;;;;;;34.20;15.32;;;;;;;-11.91;57.72;99882.27;1742231;82;21280;-80
2021/01/17 10:09:22;;;;;;;31.33;13.10;;;;;;;-11.93;58.21;99877.50;1741071;82;21356;-80
2021/01/17 10:12:28;;;;;;;28.42;11.63;;;;;;;-11.91;57.73;99883.58;1740736;82;21343;-80
2021/01/17 10:15:35;;;;;;;35.68;14.80;;;;;;;-11.96;57.49;99870.98;1742057;82;21280;-81
2021/01/17 10:18:41;;;;;;;29.23;15.30;;;;;;;-12.02;57.73;99867.23;1741087;82;21185;-81
2021/01/17 10:21:47;;;;;;;37.28;17.00;;;;;;;-12.03;57.97;99857.59;1742156;82;21260;-80
2021/01/17 10:24:53;;;;;;;37.15;15.10;;;;;;;-11.97;57.99;99858.72;1733743;81;21193;-80
2021/01/17 10:28:08;;;;;;;43.60;16.40;;;;;;;-11.99;57.56;99860.55;1741564;82;21228;-80
2021/01/17 10:31:13;;;;;;;34.18;15.28;;;;;;;-12.09;57.83;99857.76;1741748;82;21160;-80
2021/01/17 10:34:19;;;;;;;24.92;12.45;;;;;;;-12.11;57.70;99856.03;1740502;82;21366;-80
2021/01/17 10:37:26;;;;;;;30.27;14.40;;;;;;;-12.19;57.62;99868.58;1741780;82;21319;-80
2021/01/17 10:40:38;;;;;;;38.35;16.77;;;;;;;-12.26;58.00;99860.45;1740999;82;21384;-80
2021/01/17 10:43:45;;;;;;;36.15;15.90;;;;;;;-12.20;58.18;99869.48;1740934;82;21310;-80
2021/01/17 10:46:53;;;;;;;38.80;17.80;;;;;;;-12.18;58.24;99872.97;1741715;82;21699;-80
2021/01/17 10:49:59;;;;;;;44.77;19.82;;;;;;;-12.20;58.50;99863.36;1740247;82;21129;-80
2021/01/17 10:53:17;;;;;;;45.12;19.95;;;;;;;-12.23;58.89;99858.16;1741200;82;21192;-80
2021/01/17 10:56:28;;;;;;;63.20;21.48;;;;;;;-12.25;59.43;99851.63;1740317;82;21797;-80
2021/01/17 10:59:34;;;;;;;50.67;21.42;;;;;;;-12.27;59.95;99847.33;1741785;82;21330;-80
2021/01/17 11:02:41;;;;;;;48.30;22.93;;;;;;;-12.29;60.41;99838.58;1741495;82;21319;-79
2021/01/17 11:05:48;;;;;;;53.85;19.70;;;;;;;-12.27;60.89;99840.73;1741865;82;21817;-80
2021/01/17 11:08:56;;;;;;;52.88;22.87;;;;;;;-12.22;60.88;99850.69;1740956;82;21296;-79
2021/01/17 11:12:02;;;;;;;45.75;18.55;;;;;;;-12.16;60.77;99859.73;1740460;82;21287;-80
2021/01/17 11:15:19;;;;;;;37.83;17.15;;;;;;;-12.08;60.88;99860.38;1740511;82;21750;-80
2021/01/17 11:18:28;;;;;;;49.58;17.60;;;;;;;-12.06;60.00;99851.09;1742058;82;21197;-80
2021/01/17 11:21:34;;;;;;;49.67;20.88;;;;;;;-12.08;59.87;99848.50;1737036;81;21316;-82
2021/01/17 11:24:41;;;;;;;44.83;17.87;;;;;;;-12.05;60.02;99844.44;1732456;83;21754;-82
2021/01/17 11:27:47;;;;;;;53.48;22.82;;;;;;;-11.95;59.93;99848.97;1743071;82;21728;-82
2021/01/17 11:30:52;;;;;;;45.60;20.85;;;;;;;-11.91;59.78;99840.06;1747110;82;21648;-82
2021/01/17 11:33:58;;;;;;;47.95;20.10;;;;;;;-11.86;59.13;99836.82;1746571;82;21311;-82
2021/01/17 11:37:05;;;;;;;43.33;19.35;;;;;;;-11.89;59.01;99839.12;1746693;82;21280;-81
2021/01/17 11:40:17;;;;;;;59.10;27.05;;;;;;;-11.87;59.41;99840.37;1746045;82;21188;-82
2021/01/17 11:43:22;;;;;;;56.92;25.02;;;;;;;-11.87;59.27;99841.23;1746781;82;21311;-82
2021/01/17 11:46:28;;;;;;;61.70;26.23;;;;;;;-11.87;59.47;99846.52;1746960;82;21255;-81
2021/01/17 11:49:34;;;;;;;55.33;26.00;;;;;;;-11.84;59.47;99854.80;1746681;82;21723;-82
2021/01/17 11:52:42;;;;;;;64.95;26.62;;;;;;;-11.84;59.44;99853.48;1745590;82;21331;-82
2021/01/17 11:55:49;;;;;;;70.85;29.40;;;;;;;-11.78;59.46;99851.93;1746077;82;21275;-82
2021/01/17 11:58:55;;;;;;;78.65;32.58;;;;;;;-11.76;59.41;99855.41;1745824;82;21307;-83
2021/01/17 12:02:00;;;;;;;78.70;31.15;;;;;;;-11.68;59.46;99852.50;1745882;82;21840;-82
2021/01/17 12:05:07;;;;;;;82.30;29.85;;;;;;;-11.70;59.15;99849.92;1747034;82;21279;-82
2021/01/17 12:08:11;;;;;;;117.00;50.63;;;;;;;-11.73;59.06;99849.15;1747094;82;21311;-83
2021/01/17 12:11:17;;;;;;;155.50;62.62;;;;;;;-11.76;58.92;99859.78;1746951;82;21865;-83
2021/01/17 12:14:30;;;;;;;80.45;36.42;;;;;;;-11.76;58.76;99850.55;1746908;82;21838;-83
2021/01/17 12:17:35;;;;;;;66.20;26.33;;;;;;;-11.75;58.69;99849.20;1747007;82;21303;-83
2021/01/17 12:20:40;;;;;;;81.75;29.35;;;;;;;-11.73;59.05;99853.97;1747075;82;21255;-82
2021/01/17 12:23:45;;;;;;;68.50;28.40;;;;;;;-11.73;58.96;99850.47;1747114;82;21311;-83
2021/01/17 12:26:52;;;;;;;82.10;32.78;;;;;;;-11.75;58.97;99849.20;1747241;82;21351;-83
2021/01/17 12:29:58;;;;;;;72.45;29.77;;;;;;;-11.76;59.14;99843.53;1743549;82;21157;-83
2021/01/17 12:33:04;;;;;;;97.75;34.90;;;;;;;-11.70;59.04;99850.38;1743347;82;21307;-82
2021/01/17 12:36:13;;;;;;;93.25;31.75;;;;;;;-11.68;59.01;99837.53;1741937;82;21165;-82
2021/01/17 12:39:20;;;;;;;75.03;28.85;;;;;;;-11.68;59.15;99836.21;1741924;82;21358;-81
2021/01/17 12:42:25;;;;;;;91.87;29.92;;;;;;;-11.71;58.99;99839.43;1743175;82;21295;-82
2021/01/17 12:45:31;;;;;;;80.30;28.23;;;;;;;-11.80;59.00;99848.48;1743313;82;21161;-82
2021/01/17 12:48:37;;;;;;;83.15;28.10;;;;;;;-11.83;59.52;99847.29;1742499;82;21832;-81
2021/01/17 12:51:43;;;;;;;74.20;29.77;;;;;;;-11.80;59.67;99854.23;1742895;82;21193;-81
2021/01/17 12:54:48;;;;;;;74.77;28.42;;;;;;;-11.80;59.78;99848.95;1743086;82;21271;-82
2021/01/17 12:57:55;;;;;;;66.00;24.50;;;;;;;-11.77;59.51;99850.15;1742809;82;21303;-81
2021/01/17 13:01:00;;;;;;;63.92;27.22;;;;;;;-11.81;59.57;99849.84;1743230;82;21711;-82
2021/01/17 13:04:05;;;;;;;42.43;18.37;;;;;;;-11.83;59.56;99852.56;1742010;82;21311;-82
2021/01/17 13:07:13;;;;;;;36.90;16.17;;;;;;;-11.82;59.36;99852.97;1748592;80;21169;-81
2021/01/17 13:10:19;;;;;;;43.98;16.75;;;;;;;-11.97;58.87;99854.30;1753982;80;21173;-80
2021/01/17 13:13:25;;;;;;;42.55;18.12;;;;;;;-12.25;58.39;99847.67;1750247;82;21383;-80
2021/01/17 13:16:30;;;;;;;44.38;18.20;;;;;;;-12.43;59.09;99848.20;1750104;82;21165;-80
2021/01/17 13:19:36;;;;;;;42.23;17.82;;;;;;;-12.54;59.97;99852.93;1749970;82;21602;-80
2021/01/17 13:22:41;;;;;;;35.13;14.65;;;;;;;-12.60;59.72;99848.70;1750826;82;21280;-79
2021/01/17 13:25:46;;;;;;;50.43;17.67;;;;;;;-12.72;60.28;99851.20;1751947;82;21789;-80
2021/01/17 13:28:53;;;;;;;41.95;15.00;;;;;;;-12.92;60.46;99844.31;1752078;82;21160;-80
2021/01/17 13:31:59;;;;;;;32.75;13.35;;;;;;;-13.05;60.48;99842.91;1755349;82;21711;-79
2021/01/17 13:35:05;;;;;;;37.48;16.00;;;;;;;-13.20;60.93;99842.86;1755326;82;21271;-79
2021/01/17 13:38:11;;;;;;;36.93;14.87;;;;;;;-13.34;61.43;99847.64;1753715;82;21184;-80
2021/01/17 13:41:19;;;;;;;30.40;13.60;;;;;;;-13.44;61.49;99847.01;1755055;82;21329;-80
2021/01/17 13:44:26;;;;;;;33.42;13.90;;;;;;;-13.48;61.84;99840.95;1755134;82;21876;-80
2021/01/17 13:47:39;;;;;;;39.75;13.88;;;;;;;-13.55;61.92;99847.70;1755084;82;21310;-80
2021/01/17 13:50:44;;;;;;;39.92;16.00;;;;;;;-13.60;62.15;99841.69;1755406;82;21280;-80
2021/01/17 13:53:51;;;;;;;43.35;18.07;;;;;;;-13.62;62.14;99842.20;1754323;82;21176;-79
2021/01/17 13:56:57;;;;;;;31.02;14.93;;;;;;;-13.69;62.62;99851.56;1754819;82;21176;-80
2021/01/17 14:00:03;;;;;;;26.68;12.15;;;;;;;-13.69;62.95;99860.77;1753795;82;21330;-80
2021/01/17 14:03:09;;;;;;;44.38;15.98;;;;;;;-13.77;63.19;99852.18;1754720;82;21275;-79
2021/01/17 14:06:14;;;;;;;27.73;12.73;;;;;;;-13.84;63.29;99855.84;1755550;82;21291;-78
2021/01/17 14:09:19;;;;;;;31.50;13.75;;;;;;;-13.94;63.65;99852.55;1754011;82;21220;-79
2021/01/17 14:12:25;;;;;;;49.10;17.15;;;;;;;-14.02;63.98;99845.73;1754616;82;21283;-80
2021/01/17 14:15:31;;;;;;;24.23;12.18;;;;;;;-14.08;64.52;99837.55;1754002;82;21169;-80